KPOF

Poplar Bluff Municipal Airport

Poplar Bluff, Missouri, USA
METAR KPOF 160153Z AUTO 34011G19KT 10SM OVC023 09/06 A3007 RMK AO2 SLP185 T00890056
Observed Flight Rules
Dec-16 @ 01:53 UTC (14 minutes ago) Marginal Visual Flight Rules
Wind Visibility Clouds
340° at 11 knots
 Gusting to 19 knots
10 miles
  • Overcast at 2,300' AGL
Temperatures Readings
Current 9°C / 48°F
Dewpoint 6°C / 43°F
Humidity 82%
Altimeter 30.07" Hg
Pressure 1018.5 hPa
Elevation 99
METAR KPOF 160153Z AUTO 34011G19KT 10SM OVC023 09/06 A3007 RMK AO2 SLP185 T00890056
Observed Flight Rules
Dec-16 @ 01:53 UTC
(14 minutes ago)
MVFR
Wind Visibility
340° at 11 knots
 Gusting to 19 knots
10 miles
Clouds
  • Overcast at 2,300' AGL
Temperature Dewpoint
9°C / 48°F 6°C / 43°F
Humidity Altimeter Pressure
82% 30.07" Hg 1018.5 hPa